Hidden Valley, Valles Caldera, New Mexico Weather observations

Data are for 10 minute period ending at time listed.
 Day   Time   Solar   Ave.   Ave.  Ave.  Vector  Max.   Baro.   Total    
  of    of     Rad.   Air    Rel.  Wind   Wind   Wind  Press.  Precip.   
Year   Day            Temp.  Hum.  Speed  Dir.   Gust                    
2014   (MST)  Kw/m2    F      %     mph   deg.    mph    mb.     in.     
-------------------------------------------------------------------------
 262   18:30   0.00   52.3    84    0.3   217     0.8   748.1    0.00 
 262   18:40   0.00   50.3    87    0.1    94     0.6   748.2    0.00 
 262   18:50   0.04   49.1    89    0.0     0     0.0   748.3    0.00 
 262   19:00   0.11   47.9    92    0.3   178     0.8   748.4    0.00 
 262   19:10   0.01   46.5    92    0.5    17     2.1   748.5    0.00 
 262   19:20   0.00   44.9    93    0.4   326     1.0   748.7    0.00 
 262   19:30   0.00   44.5    94    0.4   338     0.9   748.8    0.00 
 262   19:40   2.04   44.0    96    0.2   186     0.8   749.0    0.00 
 262   19:50   3.87   43.4    96    0.5   150     0.9   749.1    0.00 
 262   20:00   4.05   42.6    96    0.7    17     1.4   749.2    0.00 
 262   20:10   4.00   41.7    96    0.4    12     0.9   749.3    0.00 
 262   20:20   3.18   42.3    98    1.2   241     2.2   749.3    0.00 
 262   20:30   2.98   41.4    98    0.7   274     2.1   749.4    0.00 
 262   20:40   3.48   42.1    98    0.4   310     1.6   749.5    0.00 
 262   20:50   2.86   40.7    98    0.5    96     1.3   749.6    0.00 
 262   21:00   2.53   41.2    98    0.2   343     1.2   749.7    0.00 
 262   21:10   2.89   39.7    98    0.9     3     1.6   749.7    0.00 
 262   21:20   2.51   39.0    98    0.6     7     1.9   749.8    0.00 
 262   21:30   2.81   40.0    99    0.3   246     0.8   749.7    0.00 
 262   21:40   3.28   38.9    98    1.0    42     2.4   749.7    0.00 
 262   21:50   3.31   37.3    98    0.7    73     1.9   750.0    0.00 
 262   22:00   3.42   38.2    99    1.5   179     2.0   750.0    0.00 
 262   22:10   2.22   40.2   100    1.0   281     1.9   749.9    0.00 
 262   22:20   2.02   37.7    99    0.7   102     1.5   749.9    0.00 
 262   22:30   2.23   37.6    99    0.4    57     1.2   750.0    0.00 
 262   22:40   2.20   38.1    99    0.4   189     1.4   750.0    0.00 
 262   22:50   2.37   37.0    99    0.7    62     2.0   749.9    0.00 
 262   23:00   2.41   36.4    99    0.6    30     1.5   750.0    0.00 
 262   23:10   2.76   37.0   100    1.0   276     2.0   750.0    0.00 
 262   23:20   2.83   36.6   100    0.7   104     1.3   750.1    0.00 
 262   23:30   2.62   36.2   100    0.7    15     1.7   750.2    0.00 
 262   23:40   2.52   36.3   100    0.5   263     1.5   750.2    0.00 
 262   23:50   2.38   36.9   100    0.5   181     1.8   750.0    0.00 
 263    0:00   2.34   35.7   100    0.9   346     2.0   750.1    0.00 
 263    0:10   2.42   35.4   100    1.0    90     2.8   750.1    0.00 
 263    0:20   1.71   34.8   100    1.4    27     3.1   750.2    0.00 
 263    0:30   1.16   35.7   100    1.1   137     2.0   750.2    0.00 
 263    0:40   0.98   36.0   100    0.8   290     1.6   750.3    0.00 
 263    0:50   0.96   36.1   100    0.6   183     1.5   750.4    0.00 
 263    1:00   1.25   35.6   100    0.3   311     0.8   750.4    0.00 
 263    1:10   1.40   34.5   100    0.6    50     1.2   750.4    0.00 
 263    1:20   0.84   33.8   100    0.7    29     1.8   750.5    0.00 
 263    1:30   0.82   33.4   100    0.5   351     1.3   750.5    0.00 
 263    1:40   1.89   32.6   100    0.6    46     1.0   750.4    0.00 
 263    1:50   1.97   32.7   100    0.1   301     0.6   750.5    0.00 
 263    2:00   1.84   32.8   100    0.3   260     0.7   750.4    0.00 
 263    2:10   1.30   33.3   100    0.4   167     0.9   750.4    0.00 
 263    2:20   1.97   32.7   100    0.1    55     0.5   750.4    0.00 
 263    2:30   100.00  99999.0   99999  99999.0   99999   99999.0   99999.0   99999.00 
 263    2:40   100.00  99999.0   99999  99999.0   99999   99999.0   99999.0   99999.00 
 263    2:50   100.00  99999.0   99999  99999.0   99999   99999.0   99999.0   99999.00 
 263    3:00   100.00  99999.0   99999  99999.0   99999   99999.0   99999.0   99999.00 
 263    3:10   100.00  99999.0   99999  99999.0   99999   99999.0   99999.0   99999.00 
 263    3:20   100.00  99999.0   99999  99999.0   99999   99999.0   99999.0   99999.00 
 263    3:30   2.12   32.8   100    0.3   269     0.7   750.4    0.00 
 263    3:40   2.12   32.6   100    0.4    83     0.8   750.3    0.00 
 263    3:50   2.07   32.6   100    0.0    73     0.3   750.3    0.00 
 263    4:00   1.68   32.8   100    0.0     0     0.0   750.3    0.00 
 263    4:10   1.39   33.1   100    0.0     0     0.0   750.4    0.00 
 263    4:20   1.46   33.1   100    0.0    81     0.5   750.4    0.00 
 263    4:30   1.52   33.3   100    0.4    14     0.8   750.5    0.00 
 263    4:40   1.85   33.6   100    0.3   168     1.1   750.5    0.00 
 263    4:50   1.90   33.6   100    0.3   172     1.1   750.6    0.00 
 263    5:00   1.44   33.9   100    0.1    28     1.0   750.6    0.00 
 263    5:10   1.17   33.7   100    0.9    31     1.2   750.6    0.00 
 263    5:20   1.23   33.2   100    0.6    32     1.1   750.7    0.00 
 263    5:30   1.29   32.6   100    0.5    41     0.8   750.8    0.00 
 263    5:40   1.51   32.4   100    0.4   353     0.7   750.9    0.00 
 263    5:50   2.13   32.8   100    0.3   150     0.8   751.0    0.00 
 263    6:00   2.15   32.9   100    0.2   313     0.9   751.1    0.00 
 263    6:10   2.17   33.2   100    0.3    24     0.8   751.2    0.00 
 263    6:20   2.11   33.3   100    0.4    17     0.9   751.3    0.00 
 263    6:30   2.15   33.5   100    0.3   114     0.7   751.3    0.00 
 263    6:40   2.28   34.0   100    0.0    80     0.5   751.4    0.00 
 263    6:50   2.10   35.0   100    0.2   213     0.7   751.5    0.00 
 263    7:00   1.89   36.2   100    0.2   206     0.8   751.5    0.00 
 263    7:10   1.65   37.8   100    0.6    10     1.3   751.6    0.00 
 263    7:20   2.18   38.9   100    1.1    34     1.8   751.7    0.00 
 263    7:30   1.88   39.7   100    0.8    42     1.7   751.7    0.00 
 263    7:40   1.93   40.8   100    0.6    84     1.6   751.7    0.00 
 263    7:50   2.76   42.1   100    0.2    69     0.8   751.7    0.00 
 263    8:00   3.18   43.4   100    0.3    26     0.9   751.7    0.00 
 263    8:10   3.04   45.9   100    0.3    54     0.9   751.7    0.00 
 263    8:20   2.69   48.6   100    0.5    67     1.1   751.8    0.00 
 263    8:30   2.45   50.2    99    0.5    74     1.8   751.7    0.00 
 263    8:40   1.43   52.0    99    0.4    66     1.2   751.8    0.00 
 263    8:50   0.56   54.5    98    0.5    30     1.3   751.7    0.00 
 263    9:00   0.59   56.8    91    0.6    37     1.7   751.7    0.00 
 263    9:10   0.62   60.4    78    0.7    64     1.5   751.7    0.00 
 263    9:20   0.65   66.2    52    1.2    23     2.4   751.6    0.00 
 263    9:30   0.68   68.4    42    1.8    18     3.5   751.6    0.00 
 263    9:40   0.68   70.0    36    2.3    14     4.6   751.6    0.00 
 263    9:50   0.72   71.4    30    2.5    53     7.2   751.6    0.00 
 263   10:00   0.75   71.2    29    3.7    84     6.6   751.6    0.00 
 263   10:10   0.77   71.4    30    3.4    75     6.0   751.6    0.00 
 263   10:20   0.79   71.7    29    2.7    64     5.6   751.6    0.00 
 263   10:30   0.81   72.0    28    2.6    42     5.2   751.6    0.00 
 263   10:40   0.82   72.5    28    2.7    53     5.4   751.6    0.00 
 263   10:50   0.83   72.5    27    2.5    56     5.0   751.6    0.00 
 263   11:00   0.85   72.4    27    2.9    54     5.8   751.6    0.00 
 263   11:10   0.86   72.9    27    2.4    30     4.6   751.5    0.00 
 263   11:20   0.87   73.7    26    1.6    70     4.0   751.5    0.00 
 263   11:30   0.88   74.1    26    2.5    26     4.6   751.5    0.00 
 263   11:40   0.88   74.0    28    2.3    40     4.3   751.4    0.00 
 263   11:50   0.89   74.2    28    1.9    96     4.0   751.4    0.00 
 263   12:00   0.89   74.3    27    1.9    73     5.9   751.4    0.00 
 263   12:10   0.90   74.7    28    1.9   127     4.1   751.4    0.00 
 263   12:20   0.90   74.2    27    2.3    98     6.2   751.3    0.00 
 263   12:30   0.90   74.9    27    2.9   144     4.9   751.3    0.00 
 263   12:40   0.79   74.3    27    2.5   131     4.3   751.2    0.00 
 263   12:50   0.64   74.1    28    2.0   109     4.0   751.1    0.00 
 263   13:00   0.79   73.8    28    2.5   103     4.6   751.1    0.00 
 263   13:10   0.47   71.6    28    2.6   135     4.6   751.0    0.00 
 263   13:20   0.91   74.7    27    2.9   173     4.7   750.9    0.00 
 263   13:30   0.91   75.2    26    2.2   155     5.2   750.8    0.00 
 263   13:40   0.88   76.0    26    3.1    95     5.8   750.7    0.00 
 263   13:50   0.86   76.1    25    2.6    77     5.4   750.7    0.00 
 263   14:00   0.70   75.5    24    2.2    84     4.6   750.7    0.00 
 263   14:10   0.14   71.8    28    2.2   123     5.2   750.7    0.00 
 263   14:20   0.79   74.0    27    1.4   170     5.1   750.6    0.00 
 263   14:30   0.77   76.0    25    2.0   177     5.9   750.5    0.00 
 263   14:40   0.76   76.7    24    2.4   156     4.4   750.5    0.00 
 263   14:50   0.74   75.8    27    2.5   172     5.9   750.5    0.00 
 263   15:00   0.59   75.9    27    2.0   161     6.5   750.5    0.00 
 263   15:10   0.60   74.8    28    3.6   179     9.2   750.4    0.00 
 263   15:20   0.63   75.3    29    2.8   150     6.7   750.5    0.00 
 263   15:30   0.53   74.4    29    4.1   171     7.9   750.4    0.00 
 263   15:40   0.58   74.6    28    2.9   172     7.0   750.5    0.00 
 263   15:50   0.53   74.8    28    3.7   166     7.4   750.4    0.00 
 263   16:00   0.47   74.5    28    3.1   182     6.7   750.4    0.00 
 263   16:10   0.48   74.9    28    2.7   178     6.5   750.4    0.00 
 263   16:20   0.43   74.0    26    4.3   167     8.9   750.4    0.00 
 263   16:30   0.36   73.4    26    4.1   176     8.2   750.4    0.00 
 263   16:40   0.16   72.0    28    4.2   166     8.0   750.5    0.00 
 263   16:50   0.28   71.8    29    5.1   173     9.9   750.6    0.00 
 263   17:00   0.22   70.9    31    5.7   181     9.2   750.7    0.00 
 263   17:10   0.15   70.5    30    5.8   178    10.1   750.6    0.00 
 263   17:20   0.06   69.3    32    5.5   182    11.2   750.6    0.00 
 263   17:30   0.04   68.7    35    5.8   188    11.3   750.7    0.00 
 263   17:40   0.04   68.1    39    4.0   182     7.6   750.9    0.00 
 263   17:50   0.06   67.5    42    3.0   173     6.5   751.0    0.00 
 263   18:00   0.02   67.4    44    1.6   197     4.1   751.0    0.00 
 263   18:10   0.00   66.7    46    3.5   186     7.7   751.1    0.00 
 263   18:20   0.00   66.0    50    2.9   181     6.1   751.2    0.00 

Return to Hidden Valley, Valles Caldera graphs page.


Western Regional Climate Center,wrcc@dri.edu